createdAt,value
2017-12-14T00:01:08.483Z,1.70
2017-12-14T00:03:36.014Z,2.40
2017-12-14T00:06:03.555Z,2.63
2017-12-14T00:08:31.117Z,2.07
2017-12-14T00:10:59.406Z,2.30
2017-12-14T00:13:26.964Z,2.57
2017-12-14T00:15:54.508Z,1.90
2017-12-14T00:18:22.896Z,2.00
2017-12-14T00:20:50.516Z,1.83
2017-12-14T00:23:18.831Z,1.53
2017-12-14T00:25:47.140Z,1.97
2017-12-14T00:28:14.856Z,1.73
2017-12-14T00:30:42.430Z,2.20
2017-12-14T00:33:09.968Z,2.13
2017-12-14T00:35:37.578Z,1.97
2017-12-14T00:38:05.125Z,1.80
2017-12-14T00:40:32.673Z,2.20
2017-12-14T00:43:00.223Z,2.27
2017-12-14T00:45:34.479Z,1.80
2017-12-14T00:48:02.055Z,2.20
2017-12-14T00:50:29.580Z,1.27
2017-12-14T00:52:57.970Z,1.67
2017-12-14T00:55:25.499Z,2.00
2017-12-14T00:57:54.358Z,1.83
2017-12-14T01:00:23.549Z,1.80
2017-12-14T01:02:53.891Z,2.10
2017-12-14T01:05:21.493Z,1.57
2017-12-14T01:07:49.145Z,1.70
2017-12-14T01:10:17.943Z,1.50
2017-12-14T01:12:45.500Z,1.65
2017-12-14T01:15:13.022Z,1.43
2017-12-14T01:17:41.034Z,1.60
2017-12-14T01:20:08.588Z,1.97
2017-12-14T01:22:36.140Z,1.37
2017-12-14T01:25:03.691Z,1.30
2017-12-14T01:27:37.687Z,1.30
2017-12-14T01:30:05.254Z,1.30
2017-12-14T01:32:33.533Z,1.30
2017-12-14T01:37:53.742Z,1.13
2017-12-14T01:40:21.280Z,1.50
2017-12-14T01:42:49.145Z,1.60
2017-12-14T01:45:16.692Z,1.20
2017-12-14T01:47:44.275Z,1.33
2017-12-14T01:50:12.601Z,1.20
2017-12-14T01:52:40.135Z,1.50
2017-12-14T01:55:16.302Z,1.40
2017-12-14T01:57:44.671Z,1.20
2017-12-14T02:00:18.027Z,0.67
2017-12-14T02:02:45.584Z,1.23
2017-12-14T02:05:18.157Z,1.10
2017-12-14T02:07:46.465Z,1.13
2017-12-14T02:10:13.998Z,1.23
2017-12-14T02:12:48.396Z,3.73
2017-12-14T02:15:16.114Z,1.40
2017-12-14T02:17:44.421Z,1.10
2017-12-14T02:20:20.667Z,1.00
2017-12-14T02:22:49.140Z,1.00
2017-12-14T02:25:16.681Z,1.43
2017-12-14T02:27:44.253Z,1.50
2017-12-14T02:30:12.605Z,1.37
2017-12-14T02:32:40.136Z,1.60
2017-12-14T02:35:09.746Z,1.10
2017-12-14T02:37:37.278Z,1.30
2017-12-14T02:40:05.772Z,1.00
2017-12-14T02:42:33.307Z,0.60
2017-12-14T02:45:00.837Z,0.90
2017-12-14T02:47:28.444Z,0.90
2017-12-14T02:49:56.094Z,0.80
2017-12-14T02:52:23.660Z,0.60
2017-12-14T02:54:51.224Z,0.80
2017-12-14T02:57:18.803Z,0.60
2017-12-14T02:59:46.348Z,0.83
2017-12-14T03:02:14.013Z,0.73
2017-12-14T03:04:41.531Z,0.63
2017-12-14T03:07:12.466Z,0.70
2017-12-14T03:09:40.055Z,0.80
2017-12-14T03:12:10.800Z,0.47
2017-12-14T03:14:38.684Z,0.80
2017-12-14T03:17:07.020Z,0.50
2017-12-14T03:19:35.390Z,0.80
2017-12-14T03:22:02.958Z,0.40
2017-12-14T03:24:30.658Z,0.50
2017-12-14T03:26:58.257Z,0.60
2017-12-14T03:29:25.822Z,0.83
2017-12-14T03:31:54.356Z,0.63
2017-12-14T03:34:21.877Z,0.70
2017-12-14T03:36:49.433Z,0.60
2017-12-14T03:39:16.973Z,0.70
2017-12-14T03:41:45.264Z,0.83
2017-12-14T03:44:12.916Z,0.60
2017-12-14T03:46:40.466Z,0.70
2017-12-14T03:49:08.033Z,0.80
2017-12-14T03:51:35.733Z,0.70
2017-12-14T03:54:04.146Z,0.90
2017-12-14T03:56:31.744Z,0.77
2017-12-14T03:59:00.044Z,1.10
2017-12-14T04:01:27.571Z,1.20
2017-12-14T04:03:55.145Z,0.70
2017-12-14T04:06:22.678Z,0.90
2017-12-14T04:08:50.237Z,1.50
2017-12-14T04:11:17.761Z,0.67
2017-12-14T04:13:45.449Z,1.00
2017-12-14T04:16:12.998Z,0.83
2017-12-14T04:18:40.690Z,1.03
2017-12-14T04:21:08.250Z,1.10
2017-12-14T04:23:36.540Z,0.90
2017-12-14T04:26:04.085Z,0.80
2017-12-14T04:28:31.636Z,1.00
2017-12-14T04:30:59.937Z,0.80
2017-12-14T04:33:28.247Z,0.97
2017-12-14T04:35:55.785Z,1.30
2017-12-14T04:38:23.349Z,1.00
2017-12-14T04:40:51.043Z,1.07
2017-12-14T04:43:18.575Z,1.07
2017-12-14T04:45:46.927Z,0.80
2017-12-14T04:48:14.453Z,0.97
2017-12-14T04:50:42.748Z,0.80
2017-12-14T04:53:10.270Z,0.80
2017-12-14T04:55:37.789Z,1.10
2017-12-14T04:58:05.325Z,0.60
2017-12-14T05:00:32.852Z,0.90
2017-12-14T05:03:00.372Z,1.93
2017-12-14T05:05:27.882Z,0.83
2017-12-14T05:07:56.227Z,1.20
2017-12-14T05:10:23.746Z,0.80
2017-12-14T05:12:51.268Z,1.10
2017-12-14T05:15:18.821Z,0.87
2017-12-14T05:17:46.369Z,1.10
2017-12-14T05:20:14.708Z,1.43
2017-12-14T05:22:42.234Z,0.90
2017-12-14T05:25:09.778Z,0.83
2017-12-14T05:27:37.291Z,0.90
2017-12-14T05:30:05.997Z,0.90
2017-12-14T05:32:33.520Z,0.83
2017-12-14T05:35:01.032Z,1.03
2017-12-14T05:37:28.571Z,1.97
2017-12-14T05:39:56.072Z,0.80
2017-12-14T05:42:23.572Z,0.80
2017-12-14T05:44:51.118Z,0.90
2017-12-14T05:47:18.655Z,0.80
2017-12-14T05:49:47.007Z,0.73
2017-12-14T05:52:14.557Z,0.90
2017-12-14T05:54:42.820Z,0.90
2017-12-14T05:57:10.353Z,1.10
2017-12-14T05:59:38.638Z,0.87
2017-12-14T06:02:06.990Z,0.67
2017-12-14T06:04:34.630Z,2.53
2017-12-14T06:07:02.981Z,1.03
2017-12-14T06:09:30.533Z,0.60
2017-12-14T06:11:58.116Z,0.70
2017-12-14T06:14:25.710Z,0.77
2017-12-14T06:16:53.254Z,1.17
2017-12-14T06:19:20.833Z,0.70
2017-12-14T06:21:49.157Z,0.70
2017-12-14T06:24:16.798Z,0.90
2017-12-14T06:26:44.494Z,0.80
2017-12-14T06:29:12.093Z,0.90
2017-12-14T06:31:40.424Z,1.33
2017-12-14T06:34:07.997Z,0.70
2017-12-14T06:36:36.432Z,0.70
2017-12-14T06:39:03.973Z,0.60
2017-12-14T06:41:31.481Z,1.47
2017-12-14T06:43:59.022Z,0.93
2017-12-14T06:46:26.560Z,1.23
2017-12-14T06:48:54.118Z,1.27
2017-12-14T06:51:21.860Z,1.00
2017-12-14T06:53:49.431Z,0.90
2017-12-14T06:56:17.329Z,0.50
2017-12-14T06:58:44.870Z,1.10
2017-12-14T07:01:12.389Z,1.00
2017-12-14T07:03:40.087Z,1.33
2017-12-14T07:06:07.651Z,1.30
2017-12-14T07:08:35.189Z,1.10
2017-12-14T07:11:02.959Z,1.10
2017-12-14T07:13:30.625Z,1.27
2017-12-14T07:15:58.952Z,0.60
2017-12-14T07:18:27.219Z,0.90
2017-12-14T07:20:54.762Z,0.90
2017-12-14T07:23:22.339Z,0.73
2017-12-14T07:25:50.962Z,1.57
2017-12-14T07:28:19.349Z,1.13
2017-12-14T07:30:47.666Z,2.00
2017-12-14T07:33:16.049Z,0.73
2017-12-14T07:35:44.372Z,1.02
2017-12-14T07:38:12.858Z,1.37
2017-12-14T07:40:41.229Z,0.93
2017-12-14T07:43:08.764Z,1.07
2017-12-14T07:48:53.616Z,1.00
2017-12-14T07:51:21.160Z,0.93
2017-12-14T07:53:48.729Z,1.43
2017-12-14T07:56:16.259Z,1.07
2017-12-14T07:58:43.760Z,1.37
2017-12-14T08:01:11.320Z,1.40
2017-12-14T08:03:39.810Z,1.40
2017-12-14T08:06:07.369Z,1.10
2017-12-14T08:08:35.763Z,1.43
2017-12-14T08:11:03.406Z,1.10
2017-12-14T08:13:31.022Z,0.70
2017-12-14T08:15:58.602Z,1.50
2017-12-14T08:18:26.342Z,1.17
2017-12-14T08:20:54.630Z,1.23
2017-12-14T08:23:22.290Z,0.90
2017-12-14T08:25:49.842Z,1.37
2017-12-14T08:28:17.484Z,1.33
2017-12-14T08:30:45.034Z,1.27
2017-12-14T08:33:12.562Z,1.30
2017-12-14T08:35:40.099Z,2.20
2017-12-14T08:38:07.677Z,1.50
2017-12-14T08:40:35.217Z,1.50
2017-12-14T08:43:03.604Z,1.57
2017-12-14T08:45:31.275Z,1.57
2017-12-14T08:47:58.839Z,1.80
2017-12-14T08:50:27.185Z,1.63
2017-12-14T08:52:54.761Z,1.33
2017-12-14T08:55:22.355Z,1.70
2017-12-14T08:57:49.936Z,1.30
2017-12-14T09:00:17.477Z,1.23
2017-12-14T09:02:45.050Z,1.50
2017-12-14T09:05:12.584Z,1.30
2017-12-14T09:07:41.051Z,1.47
2017-12-14T09:10:08.658Z,1.80
2017-12-14T09:12:36.218Z,1.60
2017-12-14T09:15:03.758Z,1.57
2017-12-14T09:17:32.753Z,1.23
2017-12-14T09:20:00.309Z,1.40
2017-12-14T09:22:27.884Z,1.93
2017-12-14T09:24:55.445Z,1.80
2017-12-14T09:27:23.739Z,1.53
2017-12-14T09:29:52.125Z,2.70
2017-12-14T09:32:19.692Z,2.07
2017-12-14T09:34:47.244Z,1.30
2017-12-14T09:39:49.996Z,1.50
2017-12-14T09:42:17.553Z,1.00
2017-12-14T09:44:45.118Z,1.03
2017-12-14T09:47:12.646Z,1.40
2017-12-14T09:49:40.982Z,1.17
2017-12-14T09:52:08.524Z,1.20
2017-12-14T09:54:36.134Z,1.40
2017-12-14T09:57:04.920Z,1.50
2017-12-14T09:59:32.455Z,1.10
2017-12-14T10:02:00.856Z,1.20
2017-12-14T10:04:28.498Z,1.30
2017-12-14T10:06:56.013Z,1.13
2017-12-14T10:09:23.588Z,1.30
2017-12-14T10:11:51.198Z,1.30
2017-12-14T10:14:19.770Z,1.33
2017-12-14T10:16:48.111Z,1.30
2017-12-14T10:19:15.691Z,1.00
2017-12-14T10:21:43.989Z,1.20
2017-12-14T10:24:11.563Z,1.20
2017-12-14T10:26:39.125Z,0.90
2017-12-14T10:29:07.685Z,1.03
2017-12-14T10:31:35.226Z,1.40
2017-12-14T10:34:02.910Z,1.13
2017-12-14T10:36:31.239Z,1.30
2017-12-14T10:38:59.650Z,1.20
2017-12-14T10:41:27.263Z,1.20
2017-12-14T10:43:54.808Z,1.10
2017-12-14T10:46:23.118Z,1.20
2017-12-14T10:48:50.725Z,1.50
2017-12-14T10:51:19.051Z,2.20
2017-12-14T10:53:46.710Z,1.97
2017-12-14T10:56:14.271Z,1.30
2017-12-14T10:58:42.596Z,1.50
2017-12-14T11:01:16.441Z,1.37
2017-12-14T11:03:44.737Z,1.30
2017-12-14T11:06:13.068Z,1.60
2017-12-14T11:08:41.365Z,1.30
2017-12-14T11:11:09.725Z,1.77
2017-12-14T11:13:38.049Z,1.30
2017-12-14T11:16:05.728Z,0.70
2017-12-14T11:18:33.555Z,1.10
2017-12-14T11:21:01.146Z,2.00
2017-12-14T11:23:28.720Z,2.20
2017-12-14T11:25:56.293Z,1.40
2017-12-14T11:28:23.873Z,2.67
2017-12-14T11:30:52.364Z,2.20
2017-12-14T11:33:20.223Z,1.83
2017-12-14T11:35:47.823Z,1.93
2017-12-14T11:38:16.312Z,1.73
2017-12-14T11:40:44.732Z,2.27
2017-12-14T11:43:12.355Z,2.00
2017-12-14T11:45:40.674Z,1.47
2017-12-14T11:48:09.022Z,4.87
2017-12-14T11:50:36.574Z,1.67
2017-12-14T11:53:04.130Z,1.63
2017-12-14T11:55:31.867Z,1.93
2017-12-14T11:57:59.462Z,2.90
2017-12-14T12:00:27.120Z,1.90
2017-12-14T12:02:54.660Z,1.80
2017-12-14T12:05:22.207Z,2.60
2017-12-14T12:07:49.751Z,1.87
2017-12-14T12:10:17.323Z,3.50
2017-12-14T12:12:44.880Z,1.90
2017-12-14T12:15:13.225Z,2.10
2017-12-14T12:17:40.919Z,2.57
2017-12-14T12:20:08.510Z,2.53
2017-12-14T12:22:36.073Z,1.63
2017-12-14T12:25:04.491Z,2.20
2017-12-14T12:27:32.076Z,2.80
2017-12-14T12:29:59.648Z,3.20
2017-12-14T12:32:27.199Z,2.07
2017-12-14T12:34:54.746Z,2.03
2017-12-14T12:37:22.289Z,2.40
2017-12-14T12:39:49.849Z,2.30
2017-12-14T12:42:17.407Z,2.17
2017-12-14T12:44:46.383Z,2.70
2017-12-14T12:47:13.937Z,2.20
2017-12-14T12:49:42.318Z,2.40
2017-12-14T12:52:09.904Z,2.10
2017-12-14T12:54:37.483Z,1.63
2017-12-14T12:57:05.120Z,2.40
2017-12-14T12:59:32.860Z,1.93
2017-12-14T13:02:00.441Z,2.70
2017-12-14T13:04:28.723Z,2.30
2017-12-14T13:06:56.461Z,3.00
2017-12-14T13:09:24.121Z,2.53
2017-12-14T13:11:51.795Z,2.87
2017-12-14T13:14:20.119Z,2.50
2017-12-14T13:16:47.750Z,2.80
2017-12-14T13:19:15.286Z,2.17
2017-12-14T13:21:43.571Z,1.77
2017-12-14T13:24:11.348Z,3.87
2017-12-14T13:26:38.878Z,2.67
2017-12-14T13:29:06.492Z,1.90
2017-12-14T13:31:34.046Z,2.43
2017-12-14T13:34:01.572Z,1.93
2017-12-14T13:36:29.137Z,2.80
2017-12-14T13:38:57.411Z,2.10
2017-12-14T13:41:24.941Z,3.10
2017-12-14T13:43:52.484Z,2.27
2017-12-14T13:46:20.044Z,2.93
2017-12-14T13:48:47.567Z,2.07
2017-12-14T13:51:16.166Z,2.60
2017-12-14T13:53:43.819Z,3.10
2017-12-14T13:56:11.454Z,2.80
2017-12-14T13:58:39.067Z,2.63
2017-12-14T14:01:06.597Z,2.87
2017-12-14T14:03:34.966Z,2.37
2017-12-14T14:06:02.507Z,2.60
2017-12-14T14:08:30.050Z,2.23
2017-12-14T14:10:57.560Z,2.23
2017-12-14T14:13:25.110Z,1.97
2017-12-14T14:15:52.629Z,2.97
2017-12-14T14:18:20.147Z,3.90
2017-12-14T14:20:47.778Z,4.80
2017-12-14T14:23:15.294Z,2.63
2017-12-14T14:25:43.563Z,2.77
2017-12-14T14:28:11.094Z,3.27
2017-12-14T14:30:38.612Z,2.50
2017-12-14T14:33:06.156Z,3.80
2017-12-14T14:35:33.836Z,3.60
2017-12-14T14:38:01.341Z,3.10
2017-12-14T14:40:28.918Z,2.60
2017-12-14T14:42:56.540Z,2.93
2017-12-14T14:45:24.118Z,2.90
2017-12-14T14:47:51.680Z,3.37
2017-12-14T14:50:19.239Z,3.37
2017-12-14T14:52:46.865Z,2.80
2017-12-14T14:55:14.364Z,3.80
2017-12-14T14:57:41.889Z,3.03
2017-12-14T15:00:09.411Z,3.60
2017-12-14T15:02:37.936Z,3.50
2017-12-14T15:05:05.465Z,3.57
2017-12-14T15:07:33.029Z,3.83
2017-12-14T15:10:00.562Z,2.37
2017-12-14T15:12:28.110Z,3.10
2017-12-14T15:14:55.681Z,3.13
2017-12-14T15:17:23.377Z,3.13
2017-12-14T15:19:50.923Z,2.80
2017-12-14T15:22:18.703Z,2.67
2017-12-14T15:24:46.244Z,4.50
2017-12-14T15:27:13.816Z,4.00
2017-12-14T15:29:41.344Z,2.30
2017-12-14T15:32:08.868Z,3.20
2017-12-14T15:34:37.154Z,2.63
2017-12-14T15:37:05.434Z,2.33
2017-12-14T15:39:33.060Z,3.20
2017-12-14T15:42:01.412Z,2.50
2017-12-14T15:44:29.021Z,3.07
2017-12-14T15:46:56.550Z,2.40
2017-12-14T15:49:24.842Z,2.73
2017-12-14T15:51:52.342Z,2.57
2017-12-14T15:54:21.597Z,2.40
2017-12-14T15:56:49.137Z,2.07
2017-12-14T15:59:16.699Z,2.03
2017-12-14T16:01:44.244Z,1.83
2017-12-14T16:04:12.539Z,2.40
2017-12-14T16:06:40.838Z,2.80
2017-12-14T16:09:08.428Z,2.43
2017-12-14T16:11:36.766Z,2.57
2017-12-14T16:14:04.376Z,2.10
2017-12-14T16:16:31.976Z,3.17
2017-12-14T16:19:00.336Z,2.10
2017-12-14T16:21:28.654Z,3.13
2017-12-14T16:23:57.417Z,5.43
2017-12-14T16:26:24.995Z,3.80
2017-12-14T16:28:52.624Z,2.07
2017-12-14T16:31:20.144Z,3.57
2017-12-14T16:33:48.443Z,2.57
2017-12-14T16:36:16.835Z,2.60
2017-12-14T16:38:44.402Z,2.70
2017-12-14T16:41:11.949Z,2.10
2017-12-14T16:43:40.357Z,1.70
2017-12-14T16:46:07.884Z,2.33
2017-12-14T16:48:35.434Z,2.30
2017-12-14T16:51:03.005Z,3.50
2017-12-14T16:53:30.623Z,2.93
2017-12-14T16:55:58.163Z,2.10
2017-12-14T16:58:25.698Z,2.03
2017-12-14T17:00:54.111Z,2.00
2017-12-14T17:03:21.637Z,2.40
2017-12-14T17:05:49.934Z,1.80
2017-12-14T17:08:17.516Z,2.37
2017-12-14T17:10:45.052Z,2.00
2017-12-14T17:13:12.717Z,2.47
2017-12-14T17:15:40.255Z,2.90
2017-12-14T17:18:07.819Z,3.00
2017-12-14T17:20:36.184Z,2.23
2017-12-14T17:23:03.725Z,2.47
2017-12-14T17:25:31.285Z,1.77
2017-12-14T17:27:58.897Z,1.70
2017-12-14T17:30:26.407Z,2.00
2017-12-14T17:32:54.170Z,1.80
2017-12-14T17:35:21.878Z,2.00
2017-12-14T17:37:50.237Z,2.13
2017-12-14T17:40:17.791Z,2.50
2017-12-14T17:42:45.420Z,2.07
2017-12-14T17:45:13.046Z,2.57
2017-12-14T17:47:40.670Z,2.90
2017-12-14T17:50:08.296Z,2.33
2017-12-14T17:52:42.296Z,2.20
2017-12-14T17:55:09.840Z,2.90
2017-12-14T17:57:37.352Z,2.80
2017-12-14T18:00:04.895Z,2.57
2017-12-14T18:02:32.583Z,2.53
2017-12-14T18:05:00.186Z,1.83
2017-12-14T18:07:27.722Z,1.90
2017-12-14T18:09:55.302Z,1.87
2017-12-14T18:12:23.622Z,2.30
2017-12-14T18:14:51.288Z,3.10
2017-12-14T18:17:18.849Z,2.37
2017-12-14T18:19:46.466Z,2.00
2017-12-14T18:22:14.771Z,2.20
2017-12-14T18:24:42.283Z,2.17
2017-12-14T18:27:09.812Z,2.77
2017-12-14T18:29:37.357Z,2.30
2017-12-14T18:32:04.878Z,2.90
2017-12-14T18:34:32.469Z,2.20
2017-12-14T18:37:00.000Z,2.00
2017-12-14T18:39:27.691Z,3.47
2017-12-14T18:41:56.208Z,2.30
2017-12-14T18:44:23.908Z,2.37
2017-12-14T18:46:52.255Z,2.53
2017-12-14T18:49:19.892Z,1.80
2017-12-14T18:51:47.424Z,1.73
2017-12-14T18:54:15.765Z,1.50
2017-12-14T18:56:43.301Z,2.00
2017-12-14T18:59:10.839Z,2.40
2017-12-14T19:01:38.412Z,2.40
2017-12-14T19:04:06.700Z,2.40
2017-12-14T19:06:34.426Z,2.60
2017-12-14T19:09:02.705Z,1.97
2017-12-14T19:11:30.560Z,2.23
2017-12-14T19:13:58.124Z,2.10
2017-12-14T19:16:26.415Z,1.67
2017-12-14T19:18:54.130Z,1.57
2017-12-14T19:21:22.062Z,1.33
2017-12-14T19:23:50.354Z,1.83
2017-12-14T19:26:18.869Z,1.40
2017-12-14T19:28:46.420Z,1.40
2017-12-14T19:31:14.066Z,1.27
2017-12-14T19:33:42.351Z,0.80
2017-12-14T19:36:09.905Z,1.03
2017-12-14T19:38:37.408Z,1.13
2017-12-14T19:41:04.937Z,1.83
2017-12-14T19:43:33.293Z,1.30
2017-12-14T19:46:00.874Z,1.57
2017-12-14T19:48:28.610Z,1.77
2017-12-14T19:50:56.881Z,1.90
2017-12-14T19:53:24.428Z,1.10
2017-12-14T19:55:51.951Z,2.87
2017-12-14T19:58:19.512Z,1.80
2017-12-14T20:00:49.398Z,1.60
2017-12-14T20:03:17.760Z,1.80
2017-12-14T20:05:45.408Z,1.40
2017-12-14T20:08:12.997Z,1.77
2017-12-14T20:10:42.181Z,1.90
2017-12-14T20:13:09.741Z,2.33
2017-12-14T20:15:38.168Z,1.80
2017-12-14T20:18:05.704Z,1.97
2017-12-14T20:20:33.544Z,1.37
2017-12-14T20:23:01.879Z,1.90
2017-12-14T20:25:29.552Z,1.10
2017-12-14T20:27:57.093Z,1.17
2017-12-14T20:30:24.661Z,1.60
2017-12-14T20:32:52.170Z,1.50
2017-12-14T20:35:19.723Z,1.10
2017-12-14T20:37:47.258Z,1.57
2017-12-14T20:40:15.569Z,1.23
2017-12-14T20:42:43.323Z,1.37
2017-12-14T20:45:10.981Z,1.40
2017-12-14T20:47:38.486Z,1.80
2017-12-14T20:50:06.851Z,1.77
2017-12-14T20:52:34.447Z,1.20
2017-12-14T20:55:02.009Z,1.80
2017-12-14T20:57:29.602Z,1.50
2017-12-14T20:59:57.961Z,1.63
2017-12-14T21:02:25.506Z,1.70
2017-12-14T21:04:53.030Z,1.47
2017-12-14T21:07:20.609Z,1.70
2017-12-14T21:09:49.078Z,1.50
2017-12-14T21:12:16.597Z,1.70
2017-12-14T21:14:44.133Z,1.50
2017-12-14T21:17:12.408Z,2.63
2017-12-14T21:19:40.030Z,1.70
2017-12-14T21:22:07.574Z,1.90
2017-12-14T21:24:35.096Z,2.80
2017-12-14T21:27:02.624Z,2.30
2017-12-14T21:29:30.906Z,1.43
2017-12-14T21:31:58.450Z,2.23
2017-12-14T21:34:25.964Z,1.77
2017-12-14T21:36:53.601Z,2.80
2017-12-14T21:39:21.919Z,2.27
2017-12-14T21:41:49.441Z,2.17
2017-12-14T21:44:17.049Z,1.80
2017-12-14T21:46:44.679Z,1.20
2017-12-14T21:49:13.128Z,1.20
2017-12-14T21:51:40.647Z,5.47
2017-12-14T21:54:08.203Z,1.33
2017-12-14T21:56:36.493Z,1.67
2017-12-14T21:59:04.029Z,1.57
2017-12-14T22:01:31.615Z,2.20
2017-12-14T22:03:59.211Z,1.30
2017-12-14T22:06:26.733Z,1.60
2017-12-14T22:08:54.366Z,1.30
2017-12-14T22:11:22.662Z,1.97
2017-12-14T22:13:51.122Z,1.53
2017-12-14T22:16:18.643Z,1.23
2017-12-14T22:18:46.148Z,1.50
2017-12-14T22:21:13.689Z,1.37
2017-12-14T22:23:41.969Z,1.20
2017-12-14T22:26:09.471Z,1.27
2017-12-14T22:28:37.017Z,2.07
2017-12-14T22:31:04.570Z,1.43
2017-12-14T22:33:32.111Z,1.30
2017-12-14T22:35:59.637Z,1.57
2017-12-14T22:38:27.161Z,1.67
2017-12-14T22:40:54.808Z,2.13
2017-12-14T22:43:23.157Z,2.40
2017-12-14T22:45:50.681Z,1.77
2017-12-14T22:48:18.418Z,1.40
2017-12-14T22:50:46.745Z,1.37
2017-12-14T22:53:14.297Z,1.60
2017-12-14T22:55:42.607Z,1.77
2017-12-14T22:58:10.111Z,1.47
2017-12-14T23:00:37.640Z,1.20
2017-12-14T23:03:05.159Z,1.50
2017-12-14T23:05:32.749Z,1.00
2017-12-14T23:08:00.314Z,1.53
2017-12-14T23:10:28.118Z,1.27
2017-12-14T23:12:56.423Z,0.70
2017-12-14T23:15:24.053Z,1.30
2017-12-14T23:17:51.658Z,0.93
2017-12-14T23:20:19.223Z,1.20
2017-12-14T23:22:46.769Z,1.10
2017-12-14T23:25:15.060Z,1.13
2017-12-14T23:27:42.572Z,1.20
2017-12-14T23:30:10.874Z,2.03
2017-12-14T23:32:38.386Z,1.53
2017-12-14T23:35:05.965Z,1.00
2017-12-14T23:37:34.476Z,1.23
2017-12-14T23:40:02.774Z,1.27
2017-12-14T23:42:31.595Z,1.07
2017-12-14T23:44:59.939Z,1.33
2017-12-14T23:47:27.493Z,1.37
2017-12-14T23:49:55.774Z,1.17
2017-12-14T23:52:23.346Z,1.00
2017-12-14T23:54:50.876Z,0.90
2017-12-14T23:57:18.417Z,0.70
2017-12-14T23:59:45.991Z,1.30
